Aeroporto :
LOGIN :

Iscrizione | Disclaimer

   EN    FR    IT 

 










Sommario :    VFR   VFR Marginale   IFR   IFR Intensivo   IFR Molto Intensivo
Visibilità : 
Base nubi : 
>= 8 km
>= 3000ft
5 / 8 km
1000 / 3000 ft
1500m / 5 km
500 / 1000 ft
800 / 1500m
200 / 500 ft
< 800m
< 200 ft
Simboli :   Temporali  Nebbia  Neve Forte  Precipitazioni Forti  Vento > 20 kt
SIGMETs :   Varie  Temporali  Ghiacco  Turbolenza  Onda orograficha  Ceneri Vulcaniche






- Altitudine del aeroporto : 821 ft
- Codice IATA : LYS


LFLL - Lyon St Exupéry / Satolas

ULTIMO METAR :
  • 041530Z 18017G28KT 9999 FEW023 BKN086 08/04 Q1008 TEMPO 19020G30KT

METARs OBSOLETI :
  • 041500Z 18017KT 9999 FEW023 SCT060 BKN100 08/04 Q1008 TEMPO 19020G30KT
  • 041430Z 17015KT 150V210 9999 FEW020 SCT038 BKN070 09/05 Q1009 TEMPO 19020G30KT
  • 041400Z 18013KT 150V210 9999 SCT020 SCT036 BKN070 08/04 Q1010 BECMG 18015G25KT
  • 041330Z 16011KT 9999 FEW020 BKN036 BKN070 08/04 Q1009 BECMG 18015G25KT
  • 041300Z 14007KT 110V180 9999 FEW026 BKN038 BKN066 07/04 Q1010 BECMG 18015G25KT
  • 041230Z 13006KT 9999 FEW026 SCT048 BKN066 07/04 Q1010 BECMG 18015G25KT
  • 041200Z 13004KT 110V170 9999 -RA SCT038 SCT048 OVC066 06/03 Q1011 BECMG 18015G25KT
  • 041130Z 12008KT 9999 -RA BKN048 OVC066 06/03 Q1011 BECMG 18015G25KT
  • 041100Z 11007KT 9999 -RA SCT041 OVC066 06/02 Q1011 TEMPO 18015G25KT

TAF TAF LFLL
Valido dal 04 a 12 ore il 05 a 18 ore UTC


041100Z 0412/0518 18010KT CAVOK
TEMPO 0413/0424 18018G32KT
PROB40
TEMPO 0502/0505 -SHRA FEW030TCU BKN040
BECMG 0510/0512 26007KT BKN040



MetMap, La meteo Aeronautica in un colpo d'occhio ! - Copyright ORBIFLY Dicembre 2007 - Disclaimer

ORBIFLY MET'MAP TEAM :

Programmazione e sviluppo : Alexandra Zaïnal
Concezione : Baudouin d'Aumeries
Supporto tecnico e logistico : Manuel Goepfert
Aiuto : Marc-Olivier Méhu
Aiuto per la traduzione : Arnaldo La Scala




FONTI E CREDITI :

   NOAA